createdAt,value
2023-06-21T00:00:24.147Z,100797.59
2023-06-21T00:02:52.580Z,100799.69
2023-06-21T00:05:20.250Z,100783.88
2023-06-21T00:07:49.155Z,100793.03
2023-06-21T00:10:16.697Z,100803.69
2023-06-21T00:12:44.138Z,100804.69
2023-06-21T00:15:11.778Z,100794.78
2023-06-21T00:17:39.330Z,100783.50
2023-06-21T00:20:10.234Z,100789.06
2023-06-21T00:22:38.763Z,100790.97
2023-06-21T00:25:08.146Z,100794.19
2023-06-21T00:27:38.827Z,100791.69
2023-06-21T00:30:06.856Z,100800.00
2023-06-21T00:32:34.673Z,100795.66
2023-06-21T00:35:02.136Z,100789.66
2023-06-21T00:37:29.895Z,100784.09
2023-06-21T00:39:57.311Z,100779.94
2023-06-21T00:42:26.435Z,100774.53
2023-06-21T00:44:53.928Z,100782.94
2023-06-21T00:47:21.581Z,100779.75
2023-06-21T00:49:49.178Z,100804.38
2023-06-21T00:52:18.585Z,100801.84
2023-06-21T00:54:46.711Z,100796.41
2023-06-21T00:57:15.264Z,100803.47
2023-06-21T00:59:42.843Z,100807.06
2023-06-21T01:02:10.528Z,100807.56
2023-06-21T01:04:38.017Z,100803.97
2023-06-21T01:07:21.315Z,100813.00
2023-06-21T01:10:19.596Z,100805.22
2023-06-21T01:13:08.353Z,100805.22
2023-06-21T01:15:45.276Z,100808.81
2023-06-21T01:18:17.032Z,100809.31
2023-06-21T01:20:52.466Z,100811.53
2023-06-21T01:23:39.792Z,100796.22
2023-06-21T01:26:07.942Z,100805.22
2023-06-21T01:29:09.224Z,100813.25
2023-06-21T01:31:40.288Z,100807.97
2023-06-21T01:34:09.935Z,100810.25
2023-06-21T01:36:40.927Z,100804.63
2023-06-21T01:39:10.835Z,100803.50
2023-06-21T01:41:40.063Z,100803.88
2023-06-21T01:44:10.724Z,100792.88
2023-06-21T01:46:39.868Z,100818.97
2023-06-21T01:49:10.950Z,100817.47
2023-06-21T01:51:41.452Z,100817.81
2023-06-21T01:54:27.054Z,100808.06
2023-06-21T01:57:00.744Z,100809.13
2023-06-21T01:59:30.102Z,100810.00
2023-06-21T02:02:04.580Z,100808.78
2023-06-21T02:04:34.547Z,100809.19
2023-06-21T02:07:03.680Z,100793.09
2023-06-21T02:09:32.279Z,100787.78
2023-06-21T02:12:01.470Z,100781.47
2023-06-21T02:14:29.666Z,100778.16
2023-06-21T02:16:57.079Z,100777.88
2023-06-21T02:19:26.220Z,100783.81
2023-06-21T02:21:53.782Z,100781.09
2023-06-21T02:24:21.323Z,100770.94
2023-06-21T02:26:49.604Z,100777.88
2023-06-21T02:29:17.076Z,100791.09
2023-06-21T02:31:44.606Z,100783.41
2023-06-21T02:34:15.092Z,100784.91
2023-06-21T02:36:48.959Z,100790.06
2023-06-21T02:39:16.550Z,100777.22
2023-06-21T02:41:43.984Z,100789.91
2023-06-21T02:44:13.223Z,100791.81
2023-06-21T02:46:40.706Z,100785.91
2023-06-21T02:49:08.406Z,100793.97
2023-06-21T02:51:37.628Z,100788.31
2023-06-21T02:54:05.402Z,100797.66
2023-06-21T02:56:32.976Z,100808.06
2023-06-21T02:59:00.696Z,100798.81
2023-06-21T03:01:28.194Z,100789.78
2023-06-21T03:03:56.458Z,100802.19
2023-06-21T03:06:24.873Z,100808.38
2023-06-21T03:08:52.763Z,100808.13
2023-06-21T03:11:20.188Z,100812.34
2023-06-21T03:13:48.812Z,100825.47
2023-06-21T03:16:16.800Z,100822.84
2023-06-21T03:18:44.548Z,100827.22
2023-06-21T03:21:11.937Z,100824.41
2023-06-21T03:23:40.261Z,100815.13
2023-06-21T03:26:08.894Z,100812.75
2023-06-21T03:28:36.468Z,100831.00
2023-06-21T03:31:04.463Z,100821.84
2023-06-21T03:33:32.671Z,100813.56
2023-06-21T03:36:00.351Z,100827.28
2023-06-21T03:38:27.971Z,100831.31
2023-06-21T03:40:55.677Z,100835.75
2023-06-21T03:43:23.303Z,100843.31
2023-06-21T03:45:52.158Z,100838.38
2023-06-21T03:48:19.671Z,100853.56
2023-06-21T03:50:47.415Z,100859.28
2023-06-21T03:53:14.963Z,100847.75
2023-06-21T03:55:44.512Z,100846.78
2023-06-21T03:58:13.716Z,100852.63
2023-06-21T04:00:41.263Z,100860.06
2023-06-21T04:03:08.894Z,100858.38
2023-06-21T04:05:36.485Z,100868.81
2023-06-21T04:08:06.138Z,100865.50
2023-06-21T04:10:34.800Z,100851.28
2023-06-21T04:13:02.238Z,100863.75
2023-06-21T04:15:31.330Z,100866.28
2023-06-21T04:18:01.274Z,100867.88
2023-06-21T04:20:29.016Z,100860.19
2023-06-21T04:22:56.730Z,100853.44
2023-06-21T04:25:24.226Z,100862.84
2023-06-21T04:27:51.712Z,100857.91
2023-06-21T04:30:19.998Z,100859.78
2023-06-21T04:32:48.318Z,100858.78
2023-06-21T04:35:17.587Z,100858.16
2023-06-21T04:37:46.739Z,100855.59
2023-06-21T04:40:19.796Z,100855.16
2023-06-21T04:42:49.062Z,100853.31
2023-06-21T04:45:17.797Z,100850.41
2023-06-21T04:47:49.180Z,100868.81
2023-06-21T04:52:50.010Z,100871.59
2023-06-21T04:55:21.786Z,100872.44
2023-06-21T04:57:49.836Z,100867.88
2023-06-21T05:00:18.769Z,100865.81
2023-06-21T05:02:48.695Z,100878.78
2023-06-21T05:05:16.859Z,100885.53
2023-06-21T05:07:44.456Z,100885.53
2023-06-21T05:10:12.160Z,100882.78
2023-06-21T05:12:39.790Z,100886.84
2023-06-21T05:15:07.782Z,100879.66
2023-06-21T05:17:35.878Z,100868.31
2023-06-21T05:20:05.072Z,100881.00
2023-06-21T05:22:33.122Z,100883.72
2023-06-21T05:25:03.280Z,100887.81
2023-06-21T05:27:33.850Z,100888.50
2023-06-21T05:30:01.310Z,100886.91
2023-06-21T05:32:29.742Z,100881.38
2023-06-21T05:34:57.284Z,100873.50
2023-06-21T05:37:24.810Z,100883.25
2023-06-21T05:39:52.400Z,100886.22
2023-06-21T05:42:19.994Z,100893.25
2023-06-21T05:44:47.477Z,100893.66
2023-06-21T05:47:15.562Z,100888.22
2023-06-21T05:49:43.462Z,100887.84
2023-06-21T05:52:11.044Z,100878.91
2023-06-21T05:54:42.825Z,100884.59
2023-06-21T05:57:10.762Z,100879.59
2023-06-21T06:00:12.970Z,100877.75
2023-06-21T06:02:42.932Z,100894.06
2023-06-21T06:05:10.962Z,100888.44
2023-06-21T06:07:39.125Z,100894.91
2023-06-21T06:10:06.960Z,100896.22
2023-06-21T06:12:34.888Z,100898.88
2023-06-21T06:15:02.719Z,100902.75
2023-06-21T06:17:31.508Z,100897.31
2023-06-21T06:19:59.077Z,100895.81
2023-06-21T06:22:26.694Z,100887.59
2023-06-21T06:24:54.589Z,100891.75
2023-06-21T06:27:21.942Z,100893.19
2023-06-21T06:29:49.376Z,100897.44
2023-06-21T06:32:16.912Z,100895.63
2023-06-21T06:34:44.309Z,100903.00
2023-06-21T06:37:15.515Z,100912.06
2023-06-21T06:39:45.329Z,100914.00
2023-06-21T06:42:12.789Z,100908.19
2023-06-21T06:44:41.725Z,100914.38
2023-06-21T06:47:09.174Z,100905.84
2023-06-21T06:49:36.667Z,100905.28
2023-06-21T06:52:04.504Z,100893.53
2023-06-21T06:54:32.057Z,100900.84
2023-06-21T06:56:59.427Z,100903.63
2023-06-21T06:59:29.222Z,100910.97
2023-06-21T07:02:05.048Z,100911.56
2023-06-21T07:04:32.711Z,100914.66
2023-06-21T07:07:02.301Z,100911.81
2023-06-21T07:09:29.800Z,100909.41
2023-06-21T07:12:00.557Z,100904.66
2023-06-21T07:14:28.790Z,100906.41
2023-06-21T07:16:56.325Z,100906.00
2023-06-21T07:19:23.846Z,100900.81
2023-06-21T07:21:51.532Z,100894.81
2023-06-21T07:24:19.049Z,100904.25
2023-06-21T07:26:46.485Z,100885.53
2023-06-21T07:29:14.028Z,100901.53
2023-06-21T07:31:41.411Z,100900.81
2023-06-21T07:34:10.791Z,100896.78
2023-06-21T07:36:41.367Z,100881.56
2023-06-21T07:39:09.576Z,100886.59
2023-06-21T07:41:38.045Z,100883.72
2023-06-21T07:44:05.597Z,100876.81
2023-06-21T07:46:33.181Z,100876.66
2023-06-21T07:49:00.680Z,100882.84
2023-06-21T07:51:28.148Z,100877.69
2023-06-21T07:53:55.946Z,100883.56
2023-06-21T07:56:23.486Z,100874.84
2023-06-21T07:58:50.976Z,100861.88
2023-06-21T08:01:18.456Z,100869.06
2023-06-21T08:03:46.027Z,100874.22
2023-06-21T08:06:13.581Z,100883.97
2023-06-21T08:08:41.635Z,100875.19
2023-06-21T08:11:09.874Z,100879.22
2023-06-21T08:13:37.392Z,100885.84
2023-06-21T08:16:05.222Z,100875.16
2023-06-21T08:18:32.600Z,100869.06
2023-06-21T08:21:00.559Z,100878.38
2023-06-21T08:23:28.013Z,100874.31
2023-06-21T08:25:55.491Z,100857.69
2023-06-21T08:28:22.991Z,100876.22
2023-06-21T08:30:51.138Z,100868.84
2023-06-21T08:33:18.706Z,100869.19
2023-06-21T08:35:46.188Z,100867.72
2023-06-21T08:38:27.415Z,100859.03
2023-06-21T08:41:03.251Z,100851.59
2023-06-21T08:43:31.068Z,100857.88
2023-06-21T08:46:07.675Z,100846.66
2023-06-21T08:48:37.596Z,100847.47
2023-06-21T08:51:06.130Z,100845.44
2023-06-21T08:53:51.101Z,100853.53
2023-06-21T08:56:24.241Z,100851.22
2023-06-21T08:59:01.302Z,100834.81
2023-06-21T09:01:32.612Z,100846.88
2023-06-21T09:04:05.310Z,100845.13
2023-06-21T09:06:33.437Z,100846.38
2023-06-21T09:09:01.044Z,100845.28
2023-06-21T09:11:29.038Z,100852.28
2023-06-21T09:13:57.042Z,100851.53
2023-06-21T09:16:24.673Z,100861.25
2023-06-21T09:18:52.389Z,100862.91
2023-06-21T09:21:19.968Z,100870.78
2023-06-21T09:23:47.412Z,100873.69
2023-06-21T09:26:15.629Z,100878.53
2023-06-21T09:28:44.763Z,100877.44
2023-06-21T09:31:13.644Z,100881.03
2023-06-21T09:33:43.767Z,100884.19
2023-06-21T09:36:12.662Z,100889.16
2023-06-21T09:38:40.119Z,100885.03
2023-06-21T09:41:12.865Z,100882.97
2023-06-21T09:43:44.004Z,100872.69
2023-06-21T09:46:14.052Z,100884.44
2023-06-21T09:48:42.261Z,100883.66
2023-06-21T09:51:12.609Z,100882.56
2023-06-21T09:53:45.781Z,100882.09
2023-06-21T09:56:17.540Z,100889.69
2023-06-21T09:58:45.808Z,100884.00
2023-06-21T10:01:17.208Z,100887.38
2023-06-21T10:03:46.615Z,100872.38
2023-06-21T10:06:20.365Z,100871.03
2023-06-21T10:08:52.669Z,100874.47
2023-06-21T10:11:21.359Z,100859.00
2023-06-21T10:13:49.457Z,100880.69
2023-06-21T10:16:19.946Z,100877.72
2023-06-21T10:18:48.922Z,100879.72
2023-06-21T10:21:18.867Z,100885.00
2023-06-21T10:23:50.387Z,100882.47
2023-06-21T10:26:21.063Z,100875.69
2023-06-21T10:28:54.410Z,100872.94
2023-06-21T10:31:22.929Z,100878.13
2023-06-21T10:33:51.295Z,100869.63
2023-06-21T10:36:26.673Z,100877.22
2023-06-21T10:39:03.450Z,100875.56
2023-06-21T10:41:31.505Z,100871.47
2023-06-21T10:44:00.593Z,100858.25
2023-06-21T10:46:28.529Z,100857.91
2023-06-21T10:48:57.121Z,100854.78
2023-06-21T10:51:25.037Z,100854.81
2023-06-21T10:53:55.139Z,100853.78
2023-06-21T10:56:24.725Z,100857.72
2023-06-21T10:58:52.199Z,100861.81
2023-06-21T11:01:22.240Z,100856.13
2023-06-21T11:03:51.045Z,100851.63
2023-06-21T11:06:33.420Z,100863.22
2023-06-21T11:09:12.147Z,100853.09
2023-06-21T11:11:49.821Z,100843.63
2023-06-21T11:14:22.366Z,100843.63
2023-06-21T11:17:05.581Z,100846.53
2023-06-21T11:19:33.107Z,100841.56
2023-06-21T11:22:15.067Z,100833.06
2023-06-21T11:25:10.259Z,100831.41
2023-06-21T11:27:38.205Z,100851.03
2023-06-21T11:30:24.931Z,100860.47
2023-06-21T11:32:57.401Z,100853.78
2023-06-21T11:35:47.935Z,100867.69
2023-06-21T11:38:15.436Z,100861.50
2023-06-21T11:40:43.283Z,100863.06
2023-06-21T11:43:16.818Z,100864.09
2023-06-21T11:45:57.006Z,100860.66
2023-06-21T11:48:28.253Z,100860.31
2023-06-21T11:50:57.676Z,100859.09
2023-06-21T11:53:30.751Z,100858.94
2023-06-21T11:56:01.599Z,100851.41
2023-06-21T11:58:30.353Z,100850.19
2023-06-21T12:00:58.996Z,100847.06
2023-06-21T12:03:27.236Z,100851.91
2023-06-21T12:06:02.255Z,100842.78
2023-06-21T12:08:31.766Z,100840.72
2023-06-21T12:11:01.356Z,100834.34
2023-06-21T12:13:30.994Z,100848.09
2023-06-21T12:16:06.482Z,100842.59
2023-06-21T12:18:36.002Z,100836.06
2023-06-21T12:21:05.573Z,100835.75
2023-06-21T12:23:33.122Z,100830.75
2023-06-21T12:26:02.868Z,100835.03
2023-06-21T12:28:32.444Z,100828.00
2023-06-21T12:31:10.220Z,100819.56
2023-06-21T12:33:42.142Z,100816.66
2023-06-21T12:36:19.841Z,100814.41
2023-06-21T12:39:07.438Z,100815.75
2023-06-21T12:41:36.096Z,100809.75
2023-06-21T12:44:07.415Z,100810.91
2023-06-21T12:46:40.860Z,100809.38
2023-06-21T12:49:08.282Z,100804.91
2023-06-21T12:51:39.332Z,100810.91
2023-06-21T12:54:08.831Z,100804.38
2023-06-21T12:57:02.528Z,100819.84
2023-06-21T12:59:30.263Z,100809.56
2023-06-21T13:01:59.030Z,100809.38
2023-06-21T13:04:26.626Z,100806.31
2023-06-21T13:06:54.224Z,100801.31
2023-06-21T13:09:22.538Z,100798.38
2023-06-21T13:11:49.937Z,100798.56
2023-06-21T13:14:17.327Z,100798.75
2023-06-21T13:16:44.771Z,100794.09
2023-06-21T13:19:12.174Z,100796.50
2023-06-21T13:21:39.636Z,100790.78
2023-06-21T13:24:07.125Z,100797.69
2023-06-21T13:26:34.652Z,100791.66
2023-06-21T13:29:02.023Z,100783.91
2023-06-21T13:31:29.437Z,100791.44
2023-06-21T13:33:56.827Z,100790.47
2023-06-21T13:36:24.472Z,100789.56
2023-06-21T13:38:52.119Z,100792.31
2023-06-21T13:41:19.814Z,100790.59
2023-06-21T13:43:48.738Z,100790.09
2023-06-21T13:46:16.525Z,100786.44
2023-06-21T13:48:43.973Z,100783.31
2023-06-21T13:51:11.666Z,100786.28
2023-06-21T13:53:39.331Z,100777.09
2023-06-21T13:56:06.746Z,100777.22
2023-06-21T13:58:34.195Z,100776.81
2023-06-21T14:01:01.632Z,100775.47
2023-06-21T14:03:30.170Z,100785.78
2023-06-21T14:05:58.198Z,100772.09
2023-06-21T14:08:25.759Z,100780.63
2023-06-21T14:10:53.321Z,100773.22
2023-06-21T14:13:22.738Z,100774.97
2023-06-21T14:15:50.604Z,100769.13
2023-06-21T14:18:18.655Z,100772.75
2023-06-21T14:20:46.548Z,100775.03
2023-06-21T14:23:14.090Z,100767.97
2023-06-21T14:25:44.829Z,100773.31
2023-06-21T14:28:13.984Z,100771.75
2023-06-21T14:30:41.581Z,100767.63
2023-06-21T14:33:09.215Z,100762.59
2023-06-21T14:35:36.973Z,100767.09
2023-06-21T14:38:08.723Z,100759.22
2023-06-21T14:40:36.513Z,100761.47
2023-06-21T14:43:04.021Z,100763.88
2023-06-21T14:45:31.589Z,100763.38
2023-06-21T14:47:59.943Z,100762.13
2023-06-21T14:50:28.948Z,100765.72
2023-06-21T14:52:56.810Z,100759.56
2023-06-21T14:55:24.320Z,100757.66
2023-06-21T14:57:54.422Z,100746.31
2023-06-21T15:00:55.077Z,100735.84
2023-06-21T15:03:22.594Z,100744.38
2023-06-21T15:06:04.941Z,100746.75
2023-06-21T15:08:33.499Z,100738.19
2023-06-21T15:11:00.984Z,100734.44
2023-06-21T15:13:28.462Z,100738.72
2023-06-21T15:15:56.910Z,100734.44
2023-06-21T15:18:24.332Z,100738.78
2023-06-21T15:20:51.781Z,100730.34
2023-06-21T15:23:19.267Z,100731.88
2023-06-21T15:25:46.867Z,100724.16
2023-06-21T15:28:14.330Z,100717.63
2023-06-21T15:30:41.773Z,100724.66
2023-06-21T15:33:11.094Z,100727.59
2023-06-21T15:35:38.560Z,100723.63
2023-06-21T15:38:06.013Z,100715.72
2023-06-21T15:40:33.454Z,100711.44
2023-06-21T15:43:00.865Z,100710.41
2023-06-21T15:45:28.762Z,100713.28
2023-06-21T15:47:56.580Z,100713.13
2023-06-21T15:50:24.016Z,100706.72
2023-06-21T15:52:52.887Z,100706.06
2023-06-21T15:55:20.590Z,100712.09
2023-06-21T15:57:49.090Z,100714.00
2023-06-21T16:00:17.096Z,100700.75
2023-06-21T16:02:47.009Z,100703.69
2023-06-21T16:05:14.561Z,100709.00
2023-06-21T16:07:41.971Z,100704.16
2023-06-21T16:10:09.473Z,100712.94
2023-06-21T16:12:37.329Z,100706.72
2023-06-21T16:15:05.224Z,100707.84
2023-06-21T16:17:32.716Z,100712.47
2023-06-21T16:20:00.188Z,100711.44
2023-06-21T16:22:27.600Z,100705.03
2023-06-21T16:24:55.047Z,100713.13
2023-06-21T16:27:23.652Z,100710.72
2023-06-21T16:29:51.141Z,100709.19
2023-06-21T16:32:18.501Z,100702.19
2023-06-21T16:34:47.091Z,100708.19
2023-06-21T16:37:14.613Z,100706.50
2023-06-21T16:39:42.137Z,100707.72
2023-06-21T16:42:09.792Z,100704.28
2023-06-21T16:44:37.207Z,100706.19
2023-06-21T16:47:04.915Z,100700.84
2023-06-21T16:49:32.339Z,100704.78
2023-06-21T16:51:59.843Z,100704.13
2023-06-21T16:54:27.191Z,100715.59
2023-06-21T16:57:02.397Z,100714.25
2023-06-21T16:59:31.418Z,100715.28
2023-06-21T17:01:59.238Z,100722.69
2023-06-21T17:04:26.837Z,100717.53
2023-06-21T17:06:54.208Z,100722.34
2023-06-21T17:09:21.834Z,100717.22
2023-06-21T17:11:50.146Z,100715.16
2023-06-21T17:14:17.592Z,100725.50
2023-06-21T17:16:45.088Z,100721.03
2023-06-21T17:19:17.162Z,100726.84
2023-06-21T17:21:44.639Z,100729.06
2023-06-21T17:24:12.158Z,100728.41
2023-06-21T17:26:39.717Z,100729.44
2023-06-21T17:29:07.269Z,100740.09
2023-06-21T17:31:34.780Z,100736.84
2023-06-21T17:34:03.162Z,100745.63
2023-06-21T17:36:30.510Z,100747.69
2023-06-21T17:38:57.973Z,100748.91
2023-06-21T17:41:25.458Z,100755.94
2023-06-21T17:43:52.950Z,100746.81
2023-06-21T17:46:20.363Z,100749.94
2023-06-21T17:48:47.886Z,100758.34
2023-06-21T17:51:16.317Z,100754.94
2023-06-21T17:53:43.793Z,100751.50
2023-06-21T17:56:11.168Z,100752.00
2023-06-21T17:58:38.679Z,100752.53
2023-06-21T18:01:06.167Z,100749.25
2023-06-21T18:03:33.665Z,100754.22
2023-06-21T18:06:01.228Z,100750.06
2023-06-21T18:08:29.474Z,100753.34
2023-06-21T18:10:58.888Z,100758.34
2023-06-21T18:13:26.317Z,100750.41
2023-06-21T18:15:54.357Z,100750.75
2023-06-21T18:18:23.503Z,100757.47
2023-06-21T18:20:52.306Z,100756.22
2023-06-21T18:23:19.895Z,100758.31
2023-06-21T18:25:47.316Z,100757.06
2023-06-21T18:28:14.674Z,100757.25
2023-06-21T18:30:42.152Z,100759.47
2023-06-21T18:33:09.567Z,100769.06
2023-06-21T18:35:40.318Z,100765.63
2023-06-21T18:38:08.491Z,100775.25
2023-06-21T18:40:36.790Z,100771.97
2023-06-21T18:43:04.256Z,100779.84
2023-06-21T18:45:31.662Z,100779.63
2023-06-21T18:47:59.133Z,100784.41
2023-06-21T18:50:26.746Z,100792.97
2023-06-21T18:52:54.549Z,100784.06
2023-06-21T18:55:22.846Z,100802.03
2023-06-21T18:57:50.253Z,100795.97
2023-06-21T19:00:17.718Z,100803.84
2023-06-21T19:02:45.144Z,100802.97
2023-06-21T19:05:12.711Z,100800.72
2023-06-21T19:07:40.279Z,100816.81
2023-06-21T19:10:10.011Z,100813.38
2023-06-21T19:12:38.109Z,100820.34
2023-06-21T19:15:07.039Z,100818.09
2023-06-21T19:17:34.777Z,100827.50
2023-06-21T19:20:02.529Z,100824.38
2023-06-21T19:22:31.350Z,100822.81
2023-06-21T19:24:58.981Z,100836.00
2023-06-21T19:27:26.424Z,100832.88
2023-06-21T19:29:53.829Z,100833.50
2023-06-21T19:32:21.499Z,100840.88
2023-06-21T19:34:49.516Z,100846.53
2023-06-21T19:37:17.262Z,100854.06
2023-06-21T19:39:45.560Z,100858.84
2023-06-21T19:42:13.810Z,100860.16
2023-06-21T19:44:41.976Z,100851.72
2023-06-21T19:47:12.097Z,100858.53
2023-06-21T19:49:41.057Z,100863.00
2023-06-21T19:52:09.085Z,100859.22
2023-06-21T19:54:36.435Z,100864.88
2023-06-21T19:57:04.071Z,100867.78
2023-06-21T19:59:31.743Z,100880.06
2023-06-21T20:01:59.174Z,100880.59
2023-06-21T20:04:26.661Z,100888.28
2023-06-21T20:06:55.652Z,100872.06
2023-06-21T20:09:23.069Z,100886.13
2023-06-21T20:11:50.598Z,100884.31
2023-06-21T20:14:18.113Z,100892.16
2023-06-21T20:16:45.929Z,100899.38
2023-06-21T20:19:16.028Z,100902.31
2023-06-21T20:21:46.610Z,100898.41
2023-06-21T20:24:14.753Z,100887.50
2023-06-21T20:26:43.213Z,100887.66
2023-06-21T20:29:10.651Z,100892.13
2023-06-21T20:31:38.202Z,100907.69
2023-06-21T20:34:05.889Z,100898.31
2023-06-21T20:36:34.659Z,100919.91
2023-06-21T20:39:07.207Z,100920.97
2023-06-21T20:41:34.649Z,100929.03
2023-06-21T20:44:02.986Z,100922.59
2023-06-21T20:46:32.762Z,100935.66
2023-06-21T20:49:02.825Z,100930.91
2023-06-21T20:51:30.422Z,100940.63
2023-06-21T20:53:58.164Z,100939.63
2023-06-21T20:56:27.145Z,100938.97
2023-06-21T20:58:55.866Z,100945.75
2023-06-21T21:01:24.124Z,100951.81
2023-06-21T21:03:53.548Z,100956.00
2023-06-21T21:06:21.012Z,100959.19
2023-06-21T21:08:50.847Z,100957.31
2023-06-21T21:11:18.461Z,100957.03
2023-06-21T21:13:45.905Z,100963.91
2023-06-21T21:16:13.304Z,100956.00
2023-06-21T21:18:40.723Z,100961.34
2023-06-21T21:21:10.778Z,100972.13
2023-06-21T21:23:38.480Z,100964.22
2023-06-21T21:26:05.983Z,100977.75
2023-06-21T21:28:33.582Z,100976.31
2023-06-21T21:31:01.970Z,100981.81
2023-06-21T21:33:29.436Z,100973.75
2023-06-21T21:35:56.868Z,100968.97
2023-06-21T21:38:24.425Z,100981.09
2023-06-21T21:40:51.860Z,100980.50
2023-06-21T21:43:19.244Z,100982.22
2023-06-21T21:45:47.449Z,100991.00
2023-06-21T21:48:14.865Z,100986.81
2023-06-21T21:50:42.337Z,100995.88
2023-06-21T21:53:09.700Z,100993.88
2023-06-21T21:55:37.171Z,100994.94
2023-06-21T21:58:04.514Z,100998.53
2023-06-21T22:00:32.056Z,100992.81
2023-06-21T22:02:59.633Z,100997.69
2023-06-21T22:05:27.123Z,101001.13
2023-06-21T22:07:54.542Z,100992.91
2023-06-21T22:10:36.846Z,100984.72
2023-06-21T22:13:05.580Z,100985.00
2023-06-21T22:15:32.971Z,100989.78
2023-06-21T22:18:02.566Z,100986.75
2023-06-21T22:20:30.800Z,100983.59
2023-06-21T22:22:58.468Z,100988.75
2023-06-21T22:25:25.908Z,100983.97
2023-06-21T22:27:53.481Z,100984.56
2023-06-21T22:30:21.006Z,100985.56
2023-06-21T22:32:48.405Z,100981.34
2023-06-21T22:35:16.150Z,100981.78
2023-06-21T22:37:43.761Z,100983.22
2023-06-21T22:40:11.632Z,100987.66
2023-06-21T22:42:39.065Z,100979.28
2023-06-21T22:45:07.010Z,100971.44
2023-06-21T22:47:38.629Z,100980.03
2023-06-21T22:50:07.247Z,100976.84
2023-06-21T22:52:34.884Z,100977.00
2023-06-21T22:55:02.364Z,100980.69
2023-06-21T22:57:30.254Z,100981.22
2023-06-21T22:59:57.687Z,100978.53
2023-06-21T23:02:25.231Z,100969.63
2023-06-21T23:04:52.902Z,100969.28
2023-06-21T23:07:22.071Z,100978.34
2023-06-21T23:09:49.517Z,100958.41
2023-06-21T23:12:16.952Z,100973.69
2023-06-21T23:14:47.583Z,100971.44
2023-06-21T23:17:15.237Z,100971.91
2023-06-21T23:19:42.652Z,100978.44
2023-06-21T23:22:19.388Z,100972.81
2023-06-21T23:24:46.888Z,100961.84
2023-06-21T23:27:15.695Z,100976.09
2023-06-21T23:29:43.803Z,100980.81
2023-06-21T23:32:11.338Z,100962.84
2023-06-21T23:34:39.196Z,100978.22
2023-06-21T23:37:06.940Z,100978.56
2023-06-21T23:39:34.399Z,100982.06
2023-06-21T23:42:02.669Z,100962.78
2023-06-21T23:44:31.846Z,100971.81
2023-06-21T23:46:59.259Z,100977.00
2023-06-21T23:49:26.711Z,100976.66
2023-06-21T23:51:58.191Z,100982.09
2023-06-21T23:54:27.405Z,100972.59
2023-06-21T23:56:54.907Z,100972.69
2023-06-21T23:59:22.421Z,100961.09
